sensor_id;sensor_type;location;lat;lon;timestamp;P1;durP1;ratioP1;P2;durP2;ratioP2
68653;SDS011;55636;51.108;13.622;2022-08-21T00:00:27;24.80;;;22.10;;
68653;SDS011;55636;51.108;13.622;2022-08-21T00:01:29;24.55;;;21.85;;
68653;SDS011;55636;51.108;13.622;2022-08-21T00:02:32;24.92;;;22.23;;
68653;SDS011;55636;51.108;13.622;2022-08-21T00:03:35;25.25;;;22.55;;
68653;SDS011;55636;51.108;13.622;2022-08-21T00:04:37;23.95;;;21.40;;
68653;SDS011;55636;51.108;13.622;2022-08-21T00:05:55;24.75;;;22.00;;
68653;SDS011;55636;51.108;13.622;2022-08-21T00:06:57;23.73;;;21.23;;
68653;SDS011;55636;51.108;13.622;2022-08-21T00:08:00;23.67;;;21.17;;
68653;SDS011;55636;51.108;13.622;2022-08-21T00:09:04;25.75;;;22.88;;
68653;SDS011;55636;51.108;13.622;2022-08-21T00:10:08;26.52;;;23.58;;
68653;SDS011;55636;51.108;13.622;2022-08-21T00:11:11;26.83;;;23.27;;
68653;SDS011;55636;51.108;13.622;2022-08-21T00:12:13;24.92;;;22.08;;
68653;SDS011;55636;51.108;13.622;2022-08-21T00:13:16;24.85;;;22.02;;
68653;SDS011;55636;51.108;13.622;2022-08-21T00:14:20;26.20;;;23.40;;
68653;SDS011;55636;51.108;13.622;2022-08-21T00:15:26;25.75;;;22.98;;
68653;SDS011;55636;51.108;13.622;2022-08-21T00:16:30;27.08;;;23.17;;
68653;SDS011;55636;51.108;13.622;2022-08-21T00:17:32;24.00;;;21.40;;
68653;SDS011;55636;51.108;13.622;2022-08-21T00:18:35;26.83;;;23.83;;
68653;SDS011;55636;51.108;13.622;2022-08-21T00:19:39;26.80;;;22.33;;
68653;SDS011;55636;51.108;13.622;2022-08-21T00:20:42;25.10;;;22.50;;
68653;SDS011;55636;51.108;13.622;2022-08-21T00:21:45;26.08;;;23.35;;
68653;SDS011;55636;51.108;13.622;2022-08-21T00:22:48;27.45;;;22.90;;
68653;SDS011;55636;51.108;13.622;2022-08-21T00:23:51;25.38;;;22.77;;
68653;SDS011;55636;51.108;13.622;2022-08-21T00:24:54;25.67;;;22.98;;
68653;SDS011;55636;51.108;13.622;2022-08-21T00:25:56;27.00;;;23.05;;
68653;SDS011;55636;51.108;13.622;2022-08-21T00:26:58;26.50;;;23.63;;
68653;SDS011;55636;51.108;13.622;2022-08-21T00:28:00;27.17;;;24.25;;
68653;SDS011;55636;51.108;13.622;2022-08-21T00:29:03;28.55;;;25.42;;
68653;SDS011;55636;51.108;13.622;2022-08-21T00:30:06;26.55;;;23.73;;
68653;SDS011;55636;51.108;13.622;2022-08-21T00:31:09;27.75;;;24.38;;
68653;SDS011;55636;51.108;13.622;2022-08-21T00:32:11;27.05;;;23.77;;
68653;SDS011;55636;51.108;13.622;2022-08-21T00:33:14;27.40;;;24.23;;
68653;SDS011;55636;51.108;13.622;2022-08-21T00:34:16;26.83;;;23.63;;
68653;SDS011;55636;51.108;13.622;2022-08-21T00:35:21;27.60;;;24.63;;
68653;SDS011;55636;51.108;13.622;2022-08-21T00:36:26;26.77;;;23.98;;
68653;SDS011;55636;51.108;13.622;2022-08-21T00:37:29;26.95;;;23.80;;
68653;SDS011;55636;51.108;13.622;2022-08-21T00:38:36;26.67;;;23.77;;
68653;SDS011;55636;51.108;13.622;2022-08-21T00:39:38;26.98;;;24.08;;
68653;SDS011;55636;51.108;13.622;2022-08-21T00:40:45;26.45;;;23.65;;
68653;SDS011;55636;51.108;13.622;2022-08-21T00:41:53;30.08;;;25.73;;
68653;SDS011;55636;51.108;13.622;2022-08-21T00:42:55;28.42;;;25.38;;
68653;SDS011;55636;51.108;13.622;2022-08-21T00:43:58;27.83;;;24.83;;
68653;SDS011;55636;51.108;13.622;2022-08-21T00:45:00;26.67;;;23.88;;
68653;SDS011;55636;51.108;13.622;2022-08-21T00:46:04;28.20;;;25.02;;
68653;SDS011;55636;51.108;13.622;2022-08-21T00:47:07;27.05;;;24.15;;
68653;SDS011;55636;51.108;13.622;2022-08-21T00:48:11;29.52;;;25.27;;
68653;SDS011;55636;51.108;13.622;2022-08-21T00:49:14;27.42;;;24.23;;
68653;SDS011;55636;51.108;13.622;2022-08-21T00:50:17;29.10;;;24.80;;
68653;SDS011;55636;51.108;13.622;2022-08-21T00:51:24;27.95;;;24.95;;
68653;SDS011;55636;51.108;13.622;2022-08-21T00:52:39;28.48;;;25.38;;
68653;SDS011;55636;51.108;13.622;2022-08-21T00:53:43;28.70;;;24.27;;
68653;SDS011;55636;51.108;13.622;2022-08-21T00:54:55;27.90;;;24.02;;
68653;SDS011;55636;51.108;13.622;2022-08-21T00:55:59;28.65;;;25.55;;
68653;SDS011;55636;51.108;13.622;2022-08-21T00:57:07;29.25;;;25.30;;
68653;SDS011;55636;51.108;13.622;2022-08-21T00:58:15;30.25;;;26.35;;
68653;SDS011;55636;51.108;13.622;2022-08-21T00:59:21;29.40;;;25.50;;
68653;SDS011;55636;51.108;13.622;2022-08-21T01:00:26;27.92;;;24.90;;
68653;SDS011;55636;51.108;13.622;2022-08-21T01:01:31;30.10;;;26.90;;
68653;SDS011;55636;51.108;13.622;2022-08-21T01:02:34;29.05;;;25.83;;
68653;SDS011;55636;51.108;13.622;2022-08-21T01:03:37;30.58;;;26.67;;
68653;SDS011;55636;51.108;13.622;2022-08-21T01:04:46;32.28;;;26.42;;
68653;SDS011;55636;51.108;13.622;2022-08-21T01:05:49;29.35;;;26.20;;
68653;SDS011;55636;51.108;13.622;2022-08-21T01:06:52;31.45;;;26.55;;
68653;SDS011;55636;51.108;13.622;2022-08-21T01:07:56;24.65;;;21.90;;
68653;SDS011;55636;51.108;13.622;2022-08-21T01:08:59;24.67;;;21.75;;
68653;SDS011;55636;51.108;13.622;2022-08-21T01:10:02;22.98;;;20.35;;
68653;SDS011;55636;51.108;13.622;2022-08-21T01:11:06;22.67;;;20.27;;
68653;SDS011;55636;51.108;13.622;2022-08-21T01:12:08;23.73;;;20.05;;
68653;SDS011;55636;51.108;13.622;2022-08-21T01:13:13;21.65;;;19.00;;
68653;SDS011;55636;51.108;13.622;2022-08-21T01:14:18;18.95;;;16.95;;
68653;SDS011;55636;51.108;13.622;2022-08-21T01:15:22;18.85;;;16.70;;
68653;SDS011;55636;51.108;13.622;2022-08-21T01:16:26;19.27;;;17.27;;
68653;SDS011;55636;51.108;13.622;2022-08-21T01:17:28;19.02;;;17.02;;
68653;SDS011;55636;51.108;13.622;2022-08-21T01:18:32;18.52;;;15.73;;
68653;SDS011;55636;51.108;13.622;2022-08-21T01:19:35;15.85;;;14.07;;
68653;SDS011;55636;51.108;13.622;2022-08-21T01:20:38;15.20;;;13.68;;
68653;SDS011;55636;51.108;13.622;2022-08-21T01:21:43;14.57;;;13.07;;
68653;SDS011;55636;51.108;13.622;2022-08-21T01:22:45;14.32;;;12.82;;
68653;SDS011;55636;51.108;13.622;2022-08-21T01:23:49;14.50;;;12.65;;
68653;SDS011;55636;51.108;13.622;2022-08-21T01:24:54;14.10;;;12.60;;
68653;SDS011;55636;51.108;13.622;2022-08-21T01:25:56;14.50;;;13.10;;
68653;SDS011;55636;51.108;13.622;2022-08-21T01:26:58;15.07;;;13.15;;
68653;SDS011;55636;51.108;13.622;2022-08-21T01:28:04;13.82;;;12.52;;
68653;SDS011;55636;51.108;13.622;2022-08-21T01:30:42;13.85;;;12.35;;
68653;SDS011;55636;51.108;13.622;2022-08-21T01:31:45;13.68;;;12.25;;
68653;SDS011;55636;51.108;13.622;2022-08-21T01:32:48;13.48;;;12.00;;
68653;SDS011;55636;51.108;13.622;2022-08-21T01:33:50;13.20;;;11.80;;
68653;SDS011;55636;51.108;13.622;2022-08-21T01:34:55;11.52;;;10.43;;
68653;SDS011;55636;51.108;13.622;2022-08-21T01:36:00;12.13;;;10.93;;
68653;SDS011;55636;51.108;13.622;2022-08-21T01:37:03;11.45;;;10.35;;
68653;SDS011;55636;51.108;13.622;2022-08-21T01:38:05;12.40;;;11.10;;
68653;SDS011;55636;51.108;13.622;2022-08-21T01:39:08;12.57;;;10.60;;
68653;SDS011;55636;51.108;13.622;2022-08-21T01:40:11;11.45;;;10.20;;
68653;SDS011;55636;51.108;13.622;2022-08-21T01:41:14;11.07;;;9.98;;
68653;SDS011;55636;51.108;13.622;2022-08-21T01:42:17;12.40;;;10.43;;
68653;SDS011;55636;51.108;13.622;2022-08-21T01:43:19;11.88;;;10.40;;
68653;SDS011;55636;51.108;13.622;2022-08-21T01:44:31;10.55;;;9.50;;
68653;SDS011;55636;51.108;13.622;2022-08-21T01:45:33;11.60;;;10.27;;
68653;SDS011;55636;51.108;13.622;2022-08-21T01:46:35;10.45;;;9.40;;
68653;SDS011;55636;51.108;13.622;2022-08-21T01:47:38;11.10;;;10.00;;
68653;SDS011;55636;51.108;13.622;2022-08-21T01:48:41;10.82;;;9.73;;
68653;SDS011;55636;51.108;13.622;2022-08-21T01:49:44;11.50;;;10.30;;
68653;SDS011;55636;51.108;13.622;2022-08-21T01:50:47;11.82;;;10.57;;
68653;SDS011;55636;51.108;13.622;2022-08-21T01:51:55;11.95;;;10.10;;
68653;SDS011;55636;51.108;13.622;2022-08-21T01:52:58;11.80;;;9.77;;
68653;SDS011;55636;51.108;13.622;2022-08-21T01:54:00;10.18;;;9.18;;
68653;SDS011;55636;51.108;13.622;2022-08-21T01:55:03;11.02;;;9.93;;
68653;SDS011;55636;51.108;13.622;2022-08-21T01:56:09;10.82;;;9.55;;
68653;SDS011;55636;51.108;13.622;2022-08-21T01:57:13;10.25;;;9.27;;
68653;SDS011;55636;51.108;13.622;2022-08-21T01:58:15;11.57;;;10.20;;
68653;SDS011;55636;51.108;13.622;2022-08-21T01:59:18;11.95;;;10.75;;
68653;SDS011;55636;51.108;13.622;2022-08-21T02:00:22;11.52;;;10.00;;
68653;SDS011;55636;51.108;13.622;2022-08-21T02:01:25;11.20;;;10.10;;
68653;SDS011;55636;51.108;13.622;2022-08-21T02:02:27;11.52;;;10.18;;
68653;SDS011;55636;51.108;13.622;2022-08-21T02:03:30;11.95;;;10.70;;
68653;SDS011;55636;51.108;13.622;2022-08-21T02:04:37;11.95;;;10.80;;
68653;SDS011;55636;51.108;13.622;2022-08-21T02:05:39;11.93;;;10.73;;
68653;SDS011;55636;51.108;13.622;2022-08-21T02:06:41;12.13;;;10.88;;
68653;SDS011;55636;51.108;13.622;2022-08-21T02:07:45;12.70;;;10.85;;
68653;SDS011;55636;51.108;13.622;2022-08-21T02:08:49;10.90;;;9.88;;
68653;SDS011;55636;51.108;13.622;2022-08-21T02:09:52;11.25;;;10.15;;
68653;SDS011;55636;51.108;13.622;2022-08-21T02:10:54;11.02;;;9.98;;
68653;SDS011;55636;51.108;13.622;2022-08-21T02:11:56;11.50;;;10.30;;
68653;SDS011;55636;51.108;13.622;2022-08-21T02:12:59;11.95;;;9.88;;
68653;SDS011;55636;51.108;13.622;2022-08-21T02:14:02;10.43;;;9.43;;
68653;SDS011;55636;51.108;13.622;2022-08-21T02:15:07;10.05;;;9.05;;
68653;SDS011;55636;51.108;13.622;2022-08-21T02:16:11;11.18;;;10.07;;
68653;SDS011;55636;51.108;13.622;2022-08-21T02:17:20;11.25;;;10.15;;
68653;SDS011;55636;51.108;13.622;2022-08-21T02:18:26;11.32;;;10.13;;
68653;SDS011;55636;51.108;13.622;2022-08-21T02:19:28;12.93;;;11.52;;
68653;SDS011;55636;51.108;13.622;2022-08-21T02:20:41;11.20;;;10.10;;
68653;SDS011;55636;51.108;13.622;2022-08-21T02:21:46;12.63;;;10.93;;
68653;SDS011;55636;51.108;13.622;2022-08-21T02:22:48;12.90;;;11.55;;
68653;SDS011;55636;51.108;13.622;2022-08-21T02:23:51;12.40;;;11.20;;
68653;SDS011;55636;51.108;13.622;2022-08-21T02:24:53;12.93;;;11.63;;
68653;SDS011;55636;51.108;13.622;2022-08-21T02:25:57;12.93;;;11.55;;
68653;SDS011;55636;51.108;13.622;2022-08-21T02:27:00;13.07;;;11.77;;
68653;SDS011;55636;51.108;13.622;2022-08-21T02:28:04;13.48;;;12.00;;
68653;SDS011;55636;51.108;13.622;2022-08-21T02:29:08;16.08;;;12.55;;
68653;SDS011;55636;51.108;13.622;2022-08-21T02:30:11;13.25;;;11.98;;
68653;SDS011;55636;51.108;13.622;2022-08-21T02:31:14;13.02;;;11.63;;
68653;SDS011;55636;51.108;13.622;2022-08-21T02:32:17;13.05;;;11.75;;
68653;SDS011;55636;51.108;13.622;2022-08-21T02:33:19;13.95;;;12.43;;
68653;SDS011;55636;51.108;13.622;2022-08-21T02:34:21;13.80;;;12.40;;
68653;SDS011;55636;51.108;13.622;2022-08-21T02:35:30;13.32;;;11.93;;
68653;SDS011;55636;51.108;13.622;2022-08-21T02:36:32;13.85;;;12.45;;
68653;SDS011;55636;51.108;13.622;2022-08-21T02:37:42;13.70;;;12.30;;
68653;SDS011;55636;51.108;13.622;2022-08-21T02:38:49;13.98;;;12.57;;
68653;SDS011;55636;51.108;13.622;2022-08-21T02:39:51;15.48;;;13.77;;
68653;SDS011;55636;51.108;13.622;2022-08-21T02:40:55;14.73;;;13.32;;
68653;SDS011;55636;51.108;13.622;2022-08-21T02:41:58;14.55;;;12.45;;
68653;SDS011;55636;51.108;13.622;2022-08-21T02:43:01;15.43;;;12.80;;
68653;SDS011;55636;51.108;13.622;2022-08-21T02:44:05;14.25;;;12.75;;
68653;SDS011;55636;51.108;13.622;2022-08-21T02:45:09;15.02;;;13.40;;
68653;SDS011;55636;51.108;13.622;2022-08-21T02:46:12;14.15;;;12.68;;
68653;SDS011;55636;51.108;13.622;2022-08-21T02:47:16;13.75;;;12.45;;
68653;SDS011;55636;51.108;13.622;2022-08-21T02:48:19;13.15;;;11.85;;
68653;SDS011;55636;51.108;13.622;2022-08-21T02:49:24;13.35;;;12.05;;
68653;SDS011;55636;51.108;13.622;2022-08-21T02:50:28;13.80;;;12.40;;
68653;SDS011;55636;51.108;13.622;2022-08-21T02:51:32;14.32;;;12.82;;
68653;SDS011;55636;51.108;13.622;2022-08-21T02:52:37;14.82;;;13.27;;
68653;SDS011;55636;51.108;13.622;2022-08-21T02:53:39;13.48;;;12.18;;
68653;SDS011;55636;51.108;13.622;2022-08-21T02:54:42;13.65;;;12.25;;
68653;SDS011;55636;51.108;13.622;2022-08-21T02:55:48;13.57;;;12.23;;
68653;SDS011;55636;51.108;13.622;2022-08-21T02:56:51;12.65;;;11.45;;
68653;SDS011;55636;51.108;13.622;2022-08-21T02:57:54;13.55;;;12.05;;
68653;SDS011;55636;51.108;13.622;2022-08-21T02:58:57;12.95;;;11.57;;
68653;SDS011;55636;51.108;13.622;2022-08-21T03:00:00;12.82;;;11.57;;
68653;SDS011;55636;51.108;13.622;2022-08-21T03:01:02;12.52;;;11.13;;
68653;SDS011;55636;51.108;13.622;2022-08-21T03:02:05;14.05;;;12.68;;
68653;SDS011;55636;51.108;13.622;2022-08-21T03:03:08;13.43;;;12.02;;
68653;SDS011;55636;51.108;13.622;2022-08-21T03:04:10;12.48;;;11.32;;
68653;SDS011;55636;51.108;13.622;2022-08-21T03:05:12;13.00;;;11.68;;
68653;SDS011;55636;51.108;13.622;2022-08-21T03:06:17;13.30;;;12.00;;
68653;SDS011;55636;51.108;13.622;2022-08-21T03:07:21;13.77;;;12.38;;
68653;SDS011;55636;51.108;13.622;2022-08-21T03:08:23;13.38;;;12.07;;
68653;SDS011;55636;51.108;13.622;2022-08-21T03:09:28;12.57;;;11.32;;
68653;SDS011;55636;51.108;13.622;2022-08-21T03:10:30;13.35;;;12.05;;
68653;SDS011;55636;51.108;13.622;2022-08-21T03:11:33;13.90;;;12.60;;
68653;SDS011;55636;51.108;13.622;2022-08-21T03:12:35;13.15;;;11.85;;
68653;SDS011;55636;51.108;13.622;2022-08-21T03:13:37;13.45;;;12.05;;
68653;SDS011;55636;51.108;13.622;2022-08-21T03:14:41;13.00;;;11.70;;
68653;SDS011;55636;51.108;13.622;2022-08-21T03:15:44;13.00;;;11.70;;
68653;SDS011;55636;51.108;13.622;2022-08-21T03:16:46;14.45;;;12.93;;
68653;SDS011;55636;51.108;13.622;2022-08-21T03:17:49;13.98;;;12.57;;
68653;SDS011;55636;51.108;13.622;2022-08-21T03:18:52;15.88;;;12.75;;
68653;SDS011;55636;51.108;13.622;2022-08-21T03:19:54;17.55;;;11.57;;
68653;SDS011;55636;51.108;13.622;2022-08-21T03:20:57;13.05;;;11.77;;
68653;SDS011;55636;51.108;13.622;2022-08-21T03:21:59;12.98;;;11.77;;
68653;SDS011;55636;51.108;13.622;2022-08-21T03:23:02;13.68;;;12.38;;
68653;SDS011;55636;51.108;13.622;2022-08-21T03:24:13;13.88;;;12.48;;
68653;SDS011;55636;51.108;13.622;2022-08-21T03:25:19;13.18;;;11.80;;
68653;SDS011;55636;51.108;13.622;2022-08-21T03:26:40;12.82;;;11.43;;
68653;SDS011;55636;51.108;13.622;2022-08-21T03:27:43;14.05;;;12.65;;
68653;SDS011;55636;51.108;13.622;2022-08-21T03:28:45;13.98;;;12.43;;
68653;SDS011;55636;51.108;13.622;2022-08-21T03:29:47;14.55;;;12.63;;
68653;SDS011;55636;51.108;13.622;2022-08-21T03:30:51;13.65;;;12.23;;
68653;SDS011;55636;51.108;13.622;2022-08-21T03:31:54;12.68;;;11.40;;
68653;SDS011;55636;51.108;13.622;2022-08-21T03:32:56;13.93;;;12.35;;
68653;SDS011;55636;51.108;13.622;2022-08-21T03:34:00;13.60;;;11.90;;
68653;SDS011;55636;51.108;13.622;2022-08-21T03:35:03;12.75;;;11.48;;
68653;SDS011;55636;51.108;13.622;2022-08-21T03:36:10;13.52;;;11.73;;
68653;SDS011;55636;51.108;13.622;2022-08-21T03:37:14;13.10;;;11.57;;
68653;SDS011;55636;51.108;13.622;2022-08-21T03:38:17;12.23;;;11.02;;
68653;SDS011;55636;51.108;13.622;2022-08-21T03:39:24;13.90;;;11.85;;
68653;SDS011;55636;51.108;13.622;2022-08-21T03:40:26;12.85;;;11.55;;
68653;SDS011;55636;51.108;13.622;2022-08-21T03:41:28;13.07;;;11.77;;
68653;SDS011;55636;51.108;13.622;2022-08-21T03:42:30;12.45;;;11.25;;
68653;SDS011;55636;51.108;13.622;2022-08-21T03:43:32;13.02;;;11.68;;
68653;SDS011;55636;51.108;13.622;2022-08-21T03:44:35;12.77;;;11.57;;
68653;SDS011;55636;51.108;13.622;2022-08-21T03:45:37;12.80;;;11.30;;
68653;SDS011;55636;51.108;13.622;2022-08-21T03:46:43;13.52;;;11.40;;
68653;SDS011;55636;51.108;13.622;2022-08-21T03:47:56;13.25;;;11.93;;
68653;SDS011;55636;51.108;13.622;2022-08-21T03:49:01;12.48;;;11.10;;
68653;SDS011;55636;51.108;13.622;2022-08-21T03:50:03;12.48;;;11.15;;
68653;SDS011;55636;51.108;13.622;2022-08-21T03:51:07;12.52;;;11.23;;
68653;SDS011;55636;51.108;13.622;2022-08-21T03:52:09;13.38;;;12.07;;
68653;SDS011;55636;51.108;13.622;2022-08-21T03:53:12;13.40;;;12.00;;
68653;SDS011;55636;51.108;13.622;2022-08-21T03:54:19;12.68;;;11.38;;
68653;SDS011;55636;51.108;13.622;2022-08-21T03:55:21;14.05;;;12.63;;
68653;SDS011;55636;51.108;13.622;2022-08-21T03:56:24;14.00;;;12.48;;
68653;SDS011;55636;51.108;13.622;2022-08-21T03:57:27;13.15;;;11.85;;
68653;SDS011;55636;51.108;13.622;2022-08-21T03:58:29;13.38;;;11.98;;
68653;SDS011;55636;51.108;13.622;2022-08-21T03:59:31;13.82;;;12.43;;
68653;SDS011;55636;51.108;13.622;2022-08-21T04:00:35;13.15;;;11.75;;
68653;SDS011;55636;51.108;13.622;2022-08-21T04:01:37;15.32;;;12.75;;
68653;SDS011;55636;51.108;13.622;2022-08-21T04:02:41;14.27;;;12.30;;
68653;SDS011;55636;51.108;13.622;2022-08-21T04:03:45;14.73;;;12.75;;
68653;SDS011;55636;51.108;13.622;2022-08-21T04:04:47;15.07;;;12.95;;
68653;SDS011;55636;51.108;13.622;2022-08-21T04:05:49;13.85;;;12.27;;
68653;SDS011;55636;51.108;13.622;2022-08-21T04:06:52;14.45;;;12.73;;
68653;SDS011;55636;51.108;13.622;2022-08-21T04:07:55;14.52;;;13.02;;
68653;SDS011;55636;51.108;13.622;2022-08-21T04:09:07;15.95;;;12.88;;
68653;SDS011;55636;51.108;13.622;2022-08-21T04:10:10;14.65;;;13.25;;
68653;SDS011;55636;51.108;13.622;2022-08-21T04:11:12;14.23;;;12.77;;
68653;SDS011;55636;51.108;13.622;2022-08-21T04:12:14;14.95;;;13.38;;
68653;SDS011;55636;51.108;13.622;2022-08-21T04:13:16;14.32;;;12.93;;
68653;SDS011;55636;51.108;13.622;2022-08-21T04:14:19;15.00;;;13.50;;
68653;SDS011;55636;51.108;13.622;2022-08-21T04:15:22;15.10;;;13.50;;
68653;SDS011;55636;51.108;13.622;2022-08-21T04:16:26;14.77;;;13.32;;
68653;SDS011;55636;51.108;13.622;2022-08-21T04:17:28;13.98;;;12.68;;
68653;SDS011;55636;51.108;13.622;2022-08-21T04:18:30;14.70;;;13.07;;
68653;SDS011;55636;51.108;13.622;2022-08-21T04:19:32;15.60;;;14.02;;
68653;SDS011;55636;51.108;13.622;2022-08-21T04:20:35;15.60;;;14.00;;
68653;SDS011;55636;51.108;13.622;2022-08-21T04:21:37;16.00;;;14.40;;
68653;SDS011;55636;51.108;13.622;2022-08-21T04:22:40;15.90;;;14.27;;
68653;SDS011;55636;51.108;13.622;2022-08-21T04:23:45;15.73;;;14.02;;
68653;SDS011;55636;51.108;13.622;2022-08-21T04:24:47;16.52;;;14.70;;
68653;SDS011;55636;51.108;13.622;2022-08-21T04:25:49;21.23;;;14.27;;
68653;SDS011;55636;51.108;13.622;2022-08-21T04:26:53;15.63;;;14.02;;
68653;SDS011;55636;51.108;13.622;2022-08-21T04:27:55;15.80;;;14.20;;
68653;SDS011;55636;51.108;13.622;2022-08-21T04:29:05;16.00;;;14.30;;
68653;SDS011;55636;51.108;13.622;2022-08-21T04:30:13;16.13;;;14.52;;
68653;SDS011;55636;51.108;13.622;2022-08-21T04:31:16;16.83;;;15.02;;
68653;SDS011;55636;51.108;13.622;2022-08-21T04:32:25;16.90;;;15.23;;
68653;SDS011;55636;51.108;13.622;2022-08-21T04:33:27;15.82;;;14.15;;
68653;SDS011;55636;51.108;13.622;2022-08-21T04:34:30;17.10;;;14.85;;
68653;SDS011;55636;51.108;13.622;2022-08-21T04:35:32;17.27;;;15.40;;
68653;SDS011;55636;51.108;13.622;2022-08-21T04:36:34;17.88;;;16.05;;
68653;SDS011;55636;51.108;13.622;2022-08-21T04:37:37;17.63;;;15.80;;
68653;SDS011;55636;51.108;13.622;2022-08-21T04:38:43;18.85;;;16.42;;
68653;SDS011;55636;51.108;13.622;2022-08-21T04:39:45;19.02;;;16.17;;
68653;SDS011;55636;51.108;13.622;2022-08-21T04:40:54;17.23;;;15.27;;
68653;SDS011;55636;51.108;13.622;2022-08-21T04:41:56;17.70;;;15.80;;
68653;SDS011;55636;51.108;13.622;2022-08-21T04:43:01;17.80;;;16.00;;
68653;SDS011;55636;51.108;13.622;2022-08-21T04:44:05;16.20;;;14.60;;
68653;SDS011;55636;51.108;13.622;2022-08-21T04:45:09;15.65;;;14.15;;
68653;SDS011;55636;51.108;13.622;2022-08-21T04:46:11;16.80;;;15.10;;
68653;SDS011;55636;51.108;13.622;2022-08-21T04:47:14;15.90;;;14.02;;
68653;SDS011;55636;51.108;13.622;2022-08-21T04:48:19;16.65;;;14.88;;
68653;SDS011;55636;51.108;13.622;2022-08-21T04:49:23;17.35;;;15.38;;
68653;SDS011;55636;51.108;13.622;2022-08-21T04:50:27;17.88;;;15.85;;
68653;SDS011;55636;51.108;13.622;2022-08-21T04:51:40;18.38;;;16.50;;
68653;SDS011;55636;51.108;13.622;2022-08-21T04:52:42;18.58;;;16.55;;
68653;SDS011;55636;51.108;13.622;2022-08-21T04:53:47;19.50;;;17.50;;
68653;SDS011;55636;51.108;13.622;2022-08-21T04:54:55;18.42;;;16.08;;
68653;SDS011;55636;51.108;13.622;2022-08-21T04:56:09;17.98;;;16.08;;
68653;SDS011;55636;51.108;13.622;2022-08-21T04:57:15;17.27;;;15.48;;
68653;SDS011;55636;51.108;13.622;2022-08-21T04:58:18;17.85;;;15.98;;
68653;SDS011;55636;51.108;13.622;2022-08-21T04:59:26;16.92;;;15.13;;
68653;SDS011;55636;51.108;13.622;2022-08-21T05:00:33;16.90;;;15.18;;
68653;SDS011;55636;51.108;13.622;2022-08-21T05:01:35;18.08;;;16.15;;
68653;SDS011;55636;51.108;13.622;2022-08-21T05:02:40;18.05;;;16.15;;
68653;SDS011;55636;51.108;13.622;2022-08-21T05:03:43;19.67;;;17.58;;
68653;SDS011;55636;51.108;13.622;2022-08-21T05:04:48;18.90;;;17.00;;
68653;SDS011;55636;51.108;13.622;2022-08-21T05:05:52;19.92;;;17.00;;
68653;SDS011;55636;51.108;13.622;2022-08-21T05:06:56;18.65;;;16.65;;
68653;SDS011;55636;51.108;13.622;2022-08-21T05:08:02;17.42;;;15.65;;
68653;SDS011;55636;51.108;13.622;2022-08-21T05:09:04;18.80;;;16.88;;
68653;SDS011;55636;51.108;13.622;2022-08-21T05:10:07;20.77;;;18.58;;
68653;SDS011;55636;51.108;13.622;2022-08-21T05:11:10;22.02;;;18.33;;
68653;SDS011;55636;51.108;13.622;2022-08-21T05:12:12;19.83;;;17.33;;
68653;SDS011;55636;51.108;13.622;2022-08-21T05:13:15;19.23;;;17.23;;
68653;SDS011;55636;51.108;13.622;2022-08-21T05:14:18;18.27;;;16.38;;
68653;SDS011;55636;51.108;13.622;2022-08-21T05:15:21;19.77;;;17.77;;
68653;SDS011;55636;51.108;13.622;2022-08-21T05:16:23;18.92;;;16.92;;
68653;SDS011;55636;51.108;13.622;2022-08-21T05:17:38;18.92;;;16.92;;
68653;SDS011;55636;51.108;13.622;2022-08-21T05:18:42;18.98;;;16.42;;
68653;SDS011;55636;51.108;13.622;2022-08-21T05:19:44;18.00;;;15.90;;
68653;SDS011;55636;51.108;13.622;2022-08-21T05:20:47;21.27;;;17.60;;
68653;SDS011;55636;51.108;13.622;2022-08-21T05:21:49;19.42;;;17.33;;
68653;SDS011;55636;51.108;13.622;2022-08-21T05:22:52;19.77;;;17.75;;
68653;SDS011;55636;51.108;13.622;2022-08-21T05:23:54;18.95;;;17.00;;
68653;SDS011;55636;51.108;13.622;2022-08-21T05:24:56;19.98;;;17.90;;
68653;SDS011;55636;51.108;13.622;2022-08-21T05:25:59;20.75;;;18.13;;
68653;SDS011;55636;51.108;13.622;2022-08-21T05:27:02;21.65;;;18.77;;
68653;SDS011;55636;51.108;13.622;2022-08-21T05:28:05;18.70;;;16.73;;
68653;SDS011;55636;51.108;13.622;2022-08-21T05:29:09;19.50;;;17.27;;
68653;SDS011;55636;51.108;13.622;2022-08-21T05:30:13;18.02;;;16.20;;
68653;SDS011;55636;51.108;13.622;2022-08-21T05:31:16;17.98;;;16.23;;
68653;SDS011;55636;51.108;13.622;2022-08-21T05:32:18;17.98;;;16.17;;
68653;SDS011;55636;51.108;13.622;2022-08-21T05:33:20;17.45;;;15.65;;
68653;SDS011;55636;51.108;13.622;2022-08-21T05:34:23;17.48;;;15.68;;
68653;SDS011;55636;51.108;13.622;2022-08-21T05:35:26;17.48;;;15.70;;
68653;SDS011;55636;51.108;13.622;2022-08-21T05:36:29;16.35;;;14.75;;
68653;SDS011;55636;51.108;13.622;2022-08-21T05:37:32;16.90;;;15.30;;
68653;SDS011;55636;51.108;13.622;2022-08-21T05:38:35;17.13;;;15.43;;
68653;SDS011;55636;51.108;13.622;2022-08-21T05:39:37;16.15;;;14.55;;
68653;SDS011;55636;51.108;13.622;2022-08-21T05:40:59;15.55;;;13.88;;
68653;SDS011;55636;51.108;13.622;2022-08-21T05:42:02;16.17;;;14.57;;
68653;SDS011;55636;51.108;13.622;2022-08-21T05:43:04;16.08;;;14.38;;
68653;SDS011;55636;51.108;13.622;2022-08-21T05:44:07;15.57;;;13.98;;
68653;SDS011;55636;51.108;13.622;2022-08-21T05:45:11;14.93;;;13.50;;
68653;SDS011;55636;51.108;13.622;2022-08-21T05:46:16;16.38;;;14.00;;
68653;SDS011;55636;51.108;13.622;2022-08-21T05:47:18;15.40;;;13.80;;
68653;SDS011;55636;51.108;13.622;2022-08-21T05:48:21;15.27;;;13.77;;
68653;SDS011;55636;51.108;13.622;2022-08-21T05:49:25;14.75;;;13.25;;
68653;SDS011;55636;51.108;13.622;2022-08-21T05:50:28;15.15;;;13.35;;
68653;SDS011;55636;51.108;13.622;2022-08-21T05:51:34;15.85;;;14.25;;
68653;SDS011;55636;51.108;13.622;2022-08-21T05:52:37;15.98;;;14.35;;
68653;SDS011;55636;51.108;13.622;2022-08-21T05:53:39;15.25;;;13.75;;
68653;SDS011;55636;51.108;13.622;2022-08-21T05:54:44;15.23;;;13.68;;
68653;SDS011;55636;51.108;13.622;2022-08-21T05:55:46;15.40;;;13.90;;
68653;SDS011;55636;51.108;13.622;2022-08-21T05:56:48;14.65;;;13.25;;
68653;SDS011;55636;51.108;13.622;2022-08-21T05:57:51;14.32;;;12.98;;
68653;SDS011;55636;51.108;13.622;2022-08-21T05:58:54;15.27;;;13.55;;
68653;SDS011;55636;51.108;13.622;2022-08-21T05:59:57;14.32;;;12.90;;
68653;SDS011;55636;51.108;13.622;2022-08-21T06:01:00;14.07;;;12.68;;
68653;SDS011;55636;51.108;13.622;2022-08-21T06:02:04;15.18;;;13.57;;
68653;SDS011;55636;51.108;13.622;2022-08-21T06:03:10;16.90;;;12.80;;
68653;SDS011;55636;51.108;13.622;2022-08-21T06:04:19;13.40;;;12.10;;
68653;SDS011;55636;51.108;13.622;2022-08-21T06:05:21;13.63;;;12.13;;
68653;SDS011;55636;51.108;13.622;2022-08-21T06:06:38;14.75;;;13.27;;
68653;SDS011;55636;51.108;13.622;2022-08-21T06:07:41;13.73;;;12.43;;
68653;SDS011;55636;51.108;13.622;2022-08-21T06:08:43;13.60;;;11.98;;
68653;SDS011;55636;51.108;13.622;2022-08-21T06:09:46;13.93;;;12.55;;